Courtland, Minnesota
Current Conditions -  °F | °C
As of 9:14 AM on Wednesday 26 Nov 2014 (Local Time) from KULM Reporting Station
Light Snow Light Snow  
Wind Chill: 12°   Ceiling: 800
Heat Index: 23°   Visibility: 1mi
Dew Point: 23°   Wind: 10mph
Humidity: 100%   Direction: 20°NNE
Pressure: 30.1"   Gusts: 16mph
Location:  44.27°N, 94.34°W
Report Text: KULM 261514Z AUTO 02009G14KT 1SM -SN BKN008 OVC017 M05/M05 A3010 RMK AO2
Loading
Personal Weather Stations






























Interactive Weather Map New forecast layout! Learn more

10-Day Weather Forecast

Advertisements
Track Severe Weather on mobile